sensor_id;sensor_type;location;lat;lon;timestamp;temperature;humidity
49236;DHT22;35067;48.134;8.378;2022-09-01T00:01:16;12.80;99.90
49236;DHT22;35067;48.134;8.378;2022-09-01T00:03:26;12.90;99.90
49236;DHT22;35067;48.134;8.378;2022-09-01T00:05:26;12.80;99.90
49236;DHT22;35067;48.134;8.378;2022-09-01T00:07:29;12.80;99.90
49236;DHT22;35067;48.134;8.378;2022-09-01T00:09:30;12.70;99.90
49236;DHT22;35067;48.134;8.378;2022-09-01T00:11:31;12.70;99.90
49236;DHT22;35067;48.134;8.378;2022-09-01T00:13:31;12.70;99.90
49236;DHT22;35067;48.134;8.378;2022-09-01T00:15:35;12.60;99.90
49236;DHT22;35067;48.134;8.378;2022-09-01T00:17:35;12.60;99.90
49236;DHT22;35067;48.134;8.378;2022-09-01T00:19:37;12.50;99.90
49236;DHT22;35067;48.134;8.378;2022-09-01T00:21:41;12.50;99.90
49236;DHT22;35067;48.134;8.378;2022-09-01T00:23:42;12.40;99.90
49236;DHT22;35067;48.134;8.378;2022-09-01T00:25:42;12.30;99.90
49236;DHT22;35067;48.134;8.378;2022-09-01T00:27:43;12.30;99.90
49236;DHT22;35067;48.134;8.378;2022-09-01T00:29:43;12.30;99.90
49236;DHT22;35067;48.134;8.378;2022-09-01T00:31:44;12.30;99.90
49236;DHT22;35067;48.134;8.378;2022-09-01T00:33:46;12.20;99.90
49236;DHT22;35067;48.134;8.378;2022-09-01T00:35:47;12.20;99.90
49236;DHT22;35067;48.134;8.378;2022-09-01T00:37:47;12.20;99.90
49236;DHT22;35067;48.134;8.378;2022-09-01T00:39:48;12.20;99.90
49236;DHT22;35067;48.134;8.378;2022-09-01T00:41:48;12.20;99.90
49236;DHT22;35067;48.134;8.378;2022-09-01T00:43:53;12.20;99.90
49236;DHT22;35067;48.134;8.378;2022-09-01T00:45:54;12.20;99.90
49236;DHT22;35067;48.134;8.378;2022-09-01T00:47:57;12.10;99.90
49236;DHT22;35067;48.134;8.378;2022-09-01T00:49:57;12.20;99.90
49236;DHT22;35067;48.134;8.378;2022-09-01T00:52:12;12.10;99.90
49236;DHT22;35067;48.134;8.378;2022-09-01T00:54:18;12.10;99.90
49236;DHT22;35067;48.134;8.378;2022-09-01T00:56:21;12.10;99.90
49236;DHT22;35067;48.134;8.378;2022-09-01T00:58:22;12.00;99.90
49236;DHT22;35067;48.134;8.378;2022-09-01T01:00:27;12.00;99.90
49236;DHT22;35067;48.134;8.378;2022-09-01T01:02:28;12.00;99.90
49236;DHT22;35067;48.134;8.378;2022-09-01T01:04:28;12.00;99.90
49236;DHT22;35067;48.134;8.378;2022-09-01T01:06:29;12.00;99.90
49236;DHT22;35067;48.134;8.378;2022-09-01T01:08:33;12.10;99.90
49236;DHT22;35067;48.134;8.378;2022-09-01T01:10:39;12.20;99.90
49236;DHT22;35067;48.134;8.378;2022-09-01T01:12:40;12.20;99.90
49236;DHT22;35067;48.134;8.378;2022-09-01T01:14:48;12.30;99.90
49236;DHT22;35067;48.134;8.378;2022-09-01T01:16:49;12.30;99.90
49236;DHT22;35067;48.134;8.378;2022-09-01T01:18:51;12.30;99.90
49236;DHT22;35067;48.134;8.378;2022-09-01T01:21:06;12.40;99.90
49236;DHT22;35067;48.134;8.378;2022-09-01T01:25:57;12.40;99.90
49236;DHT22;35067;48.134;8.378;2022-09-01T01:28:13;12.40;99.90
49236;DHT22;35067;48.134;8.378;2022-09-01T01:30:16;12.40;99.90
49236;DHT22;35067;48.134;8.378;2022-09-01T01:32:18;12.40;99.90
49236;DHT22;35067;48.134;8.378;2022-09-01T01:34:20;12.40;99.90
49236;DHT22;35067;48.134;8.378;2022-09-01T01:36:26;12.30;99.90
49236;DHT22;35067;48.134;8.378;2022-09-01T01:38:31;12.40;99.90
49236;DHT22;35067;48.134;8.378;2022-09-01T01:40:32;12.30;99.90
49236;DHT22;35067;48.134;8.378;2022-09-01T01:42:33;12.30;99.90
49236;DHT22;35067;48.134;8.378;2022-09-01T01:44:34;12.20;99.90
49236;DHT22;35067;48.134;8.378;2022-09-01T01:46:41;12.10;99.90
49236;DHT22;35067;48.134;8.378;2022-09-01T01:48:42;12.10;99.90
49236;DHT22;35067;48.134;8.378;2022-09-01T01:50:42;12.00;99.90
49236;DHT22;35067;48.134;8.378;2022-09-01T01:52:44;12.00;99.90
49236;DHT22;35067;48.134;8.378;2022-09-01T01:54:45;12.00;99.90
49236;DHT22;35067;48.134;8.378;2022-09-01T01:56:46;12.00;99.90
49236;DHT22;35067;48.134;8.378;2022-09-01T01:58:47;12.00;99.90
49236;DHT22;35067;48.134;8.378;2022-09-01T02:00:49;11.90;99.90
49236;DHT22;35067;48.134;8.378;2022-09-01T02:02:50;11.90;99.90
49236;DHT22;35067;48.134;8.378;2022-09-01T02:04:54;11.90;99.90
49236;DHT22;35067;48.134;8.378;2022-09-01T02:06:54;11.80;99.90
49236;DHT22;35067;48.134;8.378;2022-09-01T02:08:56;11.80;99.90
49236;DHT22;35067;48.134;8.378;2022-09-01T02:10:57;11.80;99.90
49236;DHT22;35067;48.134;8.378;2022-09-01T02:13:00;11.70;99.90
49236;DHT22;35067;48.134;8.378;2022-09-01T02:15:05;11.70;99.90
49236;DHT22;35067;48.134;8.378;2022-09-01T02:17:06;11.70;99.90
49236;DHT22;35067;48.134;8.378;2022-09-01T02:19:08;11.70;99.90
49236;DHT22;35067;48.134;8.378;2022-09-01T02:21:10;11.60;99.90
49236;DHT22;35067;48.134;8.378;2022-09-01T02:23:13;11.60;99.90
49236;DHT22;35067;48.134;8.378;2022-09-01T02:25:17;11.50;99.90
49236;DHT22;35067;48.134;8.378;2022-09-01T02:27:18;11.60;99.90
49236;DHT22;35067;48.134;8.378;2022-09-01T02:29:22;11.60;99.90
49236;DHT22;35067;48.134;8.378;2022-09-01T02:31:26;11.50;99.90
49236;DHT22;35067;48.134;8.378;2022-09-01T02:33:27;11.50;99.90
49236;DHT22;35067;48.134;8.378;2022-09-01T02:35:27;11.50;99.90
49236;DHT22;35067;48.134;8.378;2022-09-01T02:37:33;11.50;99.90
49236;DHT22;35067;48.134;8.378;2022-09-01T02:39:34;11.50;99.90
49236;DHT22;35067;48.134;8.378;2022-09-01T02:41:34;11.50;99.90
49236;DHT22;35067;48.134;8.378;2022-09-01T02:43:35;11.50;99.90
49236;DHT22;35067;48.134;8.378;2022-09-01T02:45:36;11.50;99.90
49236;DHT22;35067;48.134;8.378;2022-09-01T02:47:37;11.50;99.90
49236;DHT22;35067;48.134;8.378;2022-09-01T02:49:41;11.60;99.90
49236;DHT22;35067;48.134;8.378;2022-09-01T02:51:44;11.70;99.90
49236;DHT22;35067;48.134;8.378;2022-09-01T02:53:45;11.70;99.90
49236;DHT22;35067;48.134;8.378;2022-09-01T02:55:52;11.70;99.90
49236;DHT22;35067;48.134;8.378;2022-09-01T02:57:53;11.70;99.90
49236;DHT22;35067;48.134;8.378;2022-09-01T02:59:57;11.70;99.90
49236;DHT22;35067;48.134;8.378;2022-09-01T03:01:58;11.70;99.90
49236;DHT22;35067;48.134;8.378;2022-09-01T03:04:02;11.60;99.90
49236;DHT22;35067;48.134;8.378;2022-09-01T03:06:02;11.50;99.90
49236;DHT22;35067;48.134;8.378;2022-09-01T03:08:08;11.50;99.90
49236;DHT22;35067;48.134;8.378;2022-09-01T03:10:09;11.50;99.90
49236;DHT22;35067;48.134;8.378;2022-09-01T03:12:10;11.50;99.90
49236;DHT22;35067;48.134;8.378;2022-09-01T03:14:10;11.50;99.90
49236;DHT22;35067;48.134;8.378;2022-09-01T03:16:12;11.40;99.90
49236;DHT22;35067;48.134;8.378;2022-09-01T03:18:14;11.30;99.90
49236;DHT22;35067;48.134;8.378;2022-09-01T03:20:15;11.30;99.90
49236;DHT22;35067;48.134;8.378;2022-09-01T03:22:16;11.30;99.90
49236;DHT22;35067;48.134;8.378;2022-09-01T03:24:17;11.30;99.90
49236;DHT22;35067;48.134;8.378;2022-09-01T03:26:19;11.30;99.90
49236;DHT22;35067;48.134;8.378;2022-09-01T03:28:21;11.30;99.90
49236;DHT22;35067;48.134;8.378;2022-09-01T03:30:21;11.30;99.90
49236;DHT22;35067;48.134;8.378;2022-09-01T03:32:23;11.30;99.90
49236;DHT22;35067;48.134;8.378;2022-09-01T03:34:23;11.30;99.90
49236;DHT22;35067;48.134;8.378;2022-09-01T03:36:27;11.20;99.90
49236;DHT22;35067;48.134;8.378;2022-09-01T03:38:28;11.10;99.90
49236;DHT22;35067;48.134;8.378;2022-09-01T03:40:31;11.00;99.90
49236;DHT22;35067;48.134;8.378;2022-09-01T03:42:32;11.10;99.90
49236;DHT22;35067;48.134;8.378;2022-09-01T03:44:33;11.00;99.90
49236;DHT22;35067;48.134;8.378;2022-09-01T03:46:35;11.10;99.90
49236;DHT22;35067;48.134;8.378;2022-09-01T03:48:37;11.10;99.90
49236;DHT22;35067;48.134;8.378;2022-09-01T03:50:40;11.00;99.90
49236;DHT22;35067;48.134;8.378;2022-09-01T03:52:51;11.10;99.90
49236;DHT22;35067;48.134;8.378;2022-09-01T03:54:52;11.20;99.90
49236;DHT22;35067;48.134;8.378;2022-09-01T03:56:55;11.20;99.90
49236;DHT22;35067;48.134;8.378;2022-09-01T03:58:59;11.20;99.90
49236;DHT22;35067;48.134;8.378;2022-09-01T04:01:00;11.30;99.90
49236;DHT22;35067;48.134;8.378;2022-09-01T04:03:04;11.50;99.90
49236;DHT22;35067;48.134;8.378;2022-09-01T04:05:06;11.60;99.90
49236;DHT22;35067;48.134;8.378;2022-09-01T04:07:07;11.60;99.90
49236;DHT22;35067;48.134;8.378;2022-09-01T04:09:07;11.60;99.90
49236;DHT22;35067;48.134;8.378;2022-09-01T04:11:16;11.60;99.90
49236;DHT22;35067;48.134;8.378;2022-09-01T04:13:25;11.50;99.90
49236;DHT22;35067;48.134;8.378;2022-09-01T04:15:27;11.40;99.90
49236;DHT22;35067;48.134;8.378;2022-09-01T04:17:28;11.40;99.90
49236;DHT22;35067;48.134;8.378;2022-09-01T04:19:47;11.20;99.90
49236;DHT22;35067;48.134;8.378;2022-09-01T04:21:50;11.10;99.90
49236;DHT22;35067;48.134;8.378;2022-09-01T04:23:51;11.00;99.90
49236;DHT22;35067;48.134;8.378;2022-09-01T04:25:54;11.00;99.90
49236;DHT22;35067;48.134;8.378;2022-09-01T04:27:55;11.00;99.90
49236;DHT22;35067;48.134;8.378;2022-09-01T04:29:57;10.90;99.90
49236;DHT22;35067;48.134;8.378;2022-09-01T04:32:07;10.90;99.90
49236;DHT22;35067;48.134;8.378;2022-09-01T04:34:09;10.90;99.90
49236;DHT22;35067;48.134;8.378;2022-09-01T04:36:27;10.90;99.90
49236;DHT22;35067;48.134;8.378;2022-09-01T04:38:30;10.80;99.90
49236;DHT22;35067;48.134;8.378;2022-09-01T04:40:30;10.80;99.90
49236;DHT22;35067;48.134;8.378;2022-09-01T04:42:31;10.80;99.90
49236;DHT22;35067;48.134;8.378;2022-09-01T04:44:31;10.80;99.90
49236;DHT22;35067;48.134;8.378;2022-09-01T04:46:35;10.80;99.90
49236;DHT22;35067;48.134;8.378;2022-09-01T04:48:36;10.80;99.90
49236;DHT22;35067;48.134;8.378;2022-09-01T04:50:39;10.80;99.90
49236;DHT22;35067;48.134;8.378;2022-09-01T04:52:40;10.90;99.90
49236;DHT22;35067;48.134;8.378;2022-09-01T04:54:44;10.90;99.90
49236;DHT22;35067;48.134;8.378;2022-09-01T04:56:46;11.00;99.90
49236;DHT22;35067;48.134;8.378;2022-09-01T04:58:51;11.10;99.90
49236;DHT22;35067;48.134;8.378;2022-09-01T05:00:55;11.20;99.90
49236;DHT22;35067;48.134;8.378;2022-09-01T05:02:58;11.40;99.90
49236;DHT22;35067;48.134;8.378;2022-09-01T05:05:03;11.40;99.90
49236;DHT22;35067;48.134;8.378;2022-09-01T05:07:09;11.50;99.90
49236;DHT22;35067;48.134;8.378;2022-09-01T05:09:11;11.60;99.90
49236;DHT22;35067;48.134;8.378;2022-09-01T05:11:13;11.60;99.90
49236;DHT22;35067;48.134;8.378;2022-09-01T05:13:17;11.70;99.90
49236;DHT22;35067;48.134;8.378;2022-09-01T05:15:18;11.80;99.90
49236;DHT22;35067;48.134;8.378;2022-09-01T05:17:20;11.90;99.90
49236;DHT22;35067;48.134;8.378;2022-09-01T05:19:20;11.90;99.90
49236;DHT22;35067;48.134;8.378;2022-09-01T05:21:23;11.90;99.90
49236;DHT22;35067;48.134;8.378;2022-09-01T05:23:25;12.10;99.90
49236;DHT22;35067;48.134;8.378;2022-09-01T05:25:26;12.20;99.90
49236;DHT22;35067;48.134;8.378;2022-09-01T05:27:26;12.20;99.90
49236;DHT22;35067;48.134;8.378;2022-09-01T05:29:28;12.30;99.90
49236;DHT22;35067;48.134;8.378;2022-09-01T05:31:30;12.40;99.90
49236;DHT22;35067;48.134;8.378;2022-09-01T05:33:36;12.40;99.90
49236;DHT22;35067;48.134;8.378;2022-09-01T05:35:53;12.40;99.90
49236;DHT22;35067;48.134;8.378;2022-09-01T05:37:54;12.60;99.90
49236;DHT22;35067;48.134;8.378;2022-09-01T05:39:55;12.60;99.90
49236;DHT22;35067;48.134;8.378;2022-09-01T05:41:57;12.70;99.90
49236;DHT22;35067;48.134;8.378;2022-09-01T05:43:58;12.70;99.90
49236;DHT22;35067;48.134;8.378;2022-09-01T05:46:06;12.80;99.90
49236;DHT22;35067;48.134;8.378;2022-09-01T05:48:11;12.90;99.90
49236;DHT22;35067;48.134;8.378;2022-09-01T05:50:12;13.00;99.90
49236;DHT22;35067;48.134;8.378;2022-09-01T05:52:17;13.00;99.90
49236;DHT22;35067;48.134;8.378;2022-09-01T05:54:24;13.10;99.90
49236;DHT22;35067;48.134;8.378;2022-09-01T05:56:28;13.10;99.90
49236;DHT22;35067;48.134;8.378;2022-09-01T05:58:29;13.20;99.90
49236;DHT22;35067;48.134;8.378;2022-09-01T06:00:30;13.40;99.90
49236;DHT22;35067;48.134;8.378;2022-09-01T06:02:34;13.50;99.90
49236;DHT22;35067;48.134;8.378;2022-09-01T06:04:36;13.50;99.90
49236;DHT22;35067;48.134;8.378;2022-09-01T06:06:43;13.60;99.90
49236;DHT22;35067;48.134;8.378;2022-09-01T06:08:45;13.70;99.90
49236;DHT22;35067;48.134;8.378;2022-09-01T06:10:49;13.80;99.90
49236;DHT22;35067;48.134;8.378;2022-09-01T06:12:50;13.90;99.90
49236;DHT22;35067;48.134;8.378;2022-09-01T06:14:53;14.00;99.90
49236;DHT22;35067;48.134;8.378;2022-09-01T06:16:54;14.20;99.90
49236;DHT22;35067;48.134;8.378;2022-09-01T06:18:56;14.10;99.90
49236;DHT22;35067;48.134;8.378;2022-09-01T06:20:57;14.00;99.90
49236;DHT22;35067;48.134;8.378;2022-09-01T06:22:58;14.00;99.90
49236;DHT22;35067;48.134;8.378;2022-09-01T06:24:58;14.40;99.90
49236;DHT22;35067;48.134;8.378;2022-09-01T06:27:00;14.40;99.90
49236;DHT22;35067;48.134;8.378;2022-09-01T06:29:04;14.30;99.90
49236;DHT22;35067;48.134;8.378;2022-09-01T06:31:05;14.20;99.90
49236;DHT22;35067;48.134;8.378;2022-09-01T06:33:07;14.30;99.90
49236;DHT22;35067;48.134;8.378;2022-09-01T06:35:10;14.40;99.90
49236;DHT22;35067;48.134;8.378;2022-09-01T06:37:11;14.30;99.90
49236;DHT22;35067;48.134;8.378;2022-09-01T06:39:13;14.60;99.90
49236;DHT22;35067;48.134;8.378;2022-09-01T06:41:20;14.80;99.90
49236;DHT22;35067;48.134;8.378;2022-09-01T06:43:21;14.90;99.90
49236;DHT22;35067;48.134;8.378;2022-09-01T06:45:23;14.80;99.90
49236;DHT22;35067;48.134;8.378;2022-09-01T06:47:23;14.70;99.90
49236;DHT22;35067;48.134;8.378;2022-09-01T06:49:24;14.80;99.90
49236;DHT22;35067;48.134;8.378;2022-09-01T06:51:31;14.80;99.90
49236;DHT22;35067;48.134;8.378;2022-09-01T06:53:33;14.90;99.90
49236;DHT22;35067;48.134;8.378;2022-09-01T06:55:34;14.90;99.90
49236;DHT22;35067;48.134;8.378;2022-09-01T06:57:38;15.10;99.90
49236;DHT22;35067;48.134;8.378;2022-09-01T06:59:38;15.30;99.00
49236;DHT22;35067;48.134;8.378;2022-09-01T07:01:39;15.50;99.10
49236;DHT22;35067;48.134;8.378;2022-09-01T07:03:44;15.50;98.40
49236;DHT22;35067;48.134;8.378;2022-09-01T07:05:46;15.70;97.60
49236;DHT22;35067;48.134;8.378;2022-09-01T07:07:49;15.90;98.20
49236;DHT22;35067;48.134;8.378;2022-09-01T07:09:50;15.90;97.00
49236;DHT22;35067;48.134;8.378;2022-09-01T07:11:51;15.90;96.40
49236;DHT22;35067;48.134;8.378;2022-09-01T07:13:57;16.00;96.50
49236;DHT22;35067;48.134;8.378;2022-09-01T07:16:02;16.10;96.40
49236;DHT22;35067;48.134;8.378;2022-09-01T07:18:05;16.30;94.30
49236;DHT22;35067;48.134;8.378;2022-09-01T07:20:06;16.10;94.90
49236;DHT22;35067;48.134;8.378;2022-09-01T07:22:08;16.40;94.50
49236;DHT22;35067;48.134;8.378;2022-09-01T07:24:10;16.20;93.70
49236;DHT22;35067;48.134;8.378;2022-09-01T07:26:12;16.00;94.40
49236;DHT22;35067;48.134;8.378;2022-09-01T07:28:17;15.80;95.30
49236;DHT22;35067;48.134;8.378;2022-09-01T07:30:20;15.90;94.30
49236;DHT22;35067;48.134;8.378;2022-09-01T07:32:22;16.10;93.70
49236;DHT22;35067;48.134;8.378;2022-09-01T07:34:22;16.20;94.20
49236;DHT22;35067;48.134;8.378;2022-09-01T07:36:25;16.10;93.60
49236;DHT22;35067;48.134;8.378;2022-09-01T07:38:26;16.20;93.40
49236;DHT22;35067;48.134;8.378;2022-09-01T07:40:27;16.20;93.30
49236;DHT22;35067;48.134;8.378;2022-09-01T07:42:28;15.80;93.70
49236;DHT22;35067;48.134;8.378;2022-09-01T07:44:29;15.90;94.40
49236;DHT22;35067;48.134;8.378;2022-09-01T07:46:30;15.90;94.50
49236;DHT22;35067;48.134;8.378;2022-09-01T07:48:32;16.10;93.50
49236;DHT22;35067;48.134;8.378;2022-09-01T07:50:34;16.20;93.30
49236;DHT22;35067;48.134;8.378;2022-09-01T07:52:35;16.40;93.70
49236;DHT22;35067;48.134;8.378;2022-09-01T07:54:37;16.80;92.00
49236;DHT22;35067;48.134;8.378;2022-09-01T07:56:37;16.70;90.80
49236;DHT22;35067;48.134;8.378;2022-09-01T07:58:40;16.80;91.20
49236;DHT22;35067;48.134;8.378;2022-09-01T08:00:44;17.10;90.50
49236;DHT22;35067;48.134;8.378;2022-09-01T08:02:49;17.20;89.30
49236;DHT22;35067;48.134;8.378;2022-09-01T08:04:50;17.30;90.10
49236;DHT22;35067;48.134;8.378;2022-09-01T08:06:51;17.00;90.30
49236;DHT22;35067;48.134;8.378;2022-09-01T08:08:54;16.80;90.50
49236;DHT22;35067;48.134;8.378;2022-09-01T08:10:55;16.50;92.10
49236;DHT22;35067;48.134;8.378;2022-09-01T08:12:55;16.90;90.20
49236;DHT22;35067;48.134;8.378;2022-09-01T08:14:56;16.90;90.30
49236;DHT22;35067;48.134;8.378;2022-09-01T08:16:57;17.10;85.90
49236;DHT22;35067;48.134;8.378;2022-09-01T08:18:57;17.20;86.10
49236;DHT22;35067;48.134;8.378;2022-09-01T08:20:58;17.60;84.70
49236;DHT22;35067;48.134;8.378;2022-09-01T08:22:59;17.70;83.60
49236;DHT22;35067;48.134;8.378;2022-09-01T08:24:59;17.80;83.00
49236;DHT22;35067;48.134;8.378;2022-09-01T08:27:00;17.90;78.80
49236;DHT22;35067;48.134;8.378;2022-09-01T08:29:00;18.40;78.50
49236;DHT22;35067;48.134;8.378;2022-09-01T08:31:12;18.50;75.10
49236;DHT22;35067;48.134;8.378;2022-09-01T08:33:14;18.40;77.90
49236;DHT22;35067;48.134;8.378;2022-09-01T08:35:15;17.80;76.90
49236;DHT22;35067;48.134;8.378;2022-09-01T08:37:15;17.50;80.80
49236;DHT22;35067;48.134;8.378;2022-09-01T08:39:16;17.80;80.20
49236;DHT22;35067;48.134;8.378;2022-09-01T08:45:50;18.40;74.10
49236;DHT22;35067;48.134;8.378;2022-09-01T08:47:54;18.00;76.90
49236;DHT22;35067;48.134;8.378;2022-09-01T08:49:57;18.30;79.60
49236;DHT22;35067;48.134;8.378;2022-09-01T08:52:23;18.70;74.50
49236;DHT22;35067;48.134;8.378;2022-09-01T08:56:35;18.50;73.00
49236;DHT22;35067;48.134;8.378;2022-09-01T08:58:36;18.70;73.40
49236;DHT22;35067;48.134;8.378;2022-09-01T09:00:41;18.70;73.50
49236;DHT22;35067;48.134;8.378;2022-09-01T09:05:54;19.10;72.10
49236;DHT22;35067;48.134;8.378;2022-09-01T09:10:08;18.90;71.40
49236;DHT22;35067;48.134;8.378;2022-09-01T09:17:32;20.10;68.20
49236;DHT22;35067;48.134;8.378;2022-09-01T09:19:38;19.60;65.60
49236;DHT22;35067;48.134;8.378;2022-09-01T09:21:45;19.40;67.40
49236;DHT22;35067;48.134;8.378;2022-09-01T09:26:12;19.30;77.00
49236;DHT22;35067;48.134;8.378;2022-09-01T09:28:13;19.60;69.00
49236;DHT22;35067;48.134;8.378;2022-09-01T09:30:26;19.20;71.70
49236;DHT22;35067;48.134;8.378;2022-09-01T09:35:21;19.30;70.90
49236;DHT22;35067;48.134;8.378;2022-09-01T09:37:29;19.70;67.60
49236;DHT22;35067;48.134;8.378;2022-09-01T09:39:30;19.70;69.80
49236;DHT22;35067;48.134;8.378;2022-09-01T09:41:31;19.90;67.40
49236;DHT22;35067;48.134;8.378;2022-09-01T09:43:37;20.10;65.80
49236;DHT22;35067;48.134;8.378;2022-09-01T09:45:41;20.40;67.10
49236;DHT22;35067;48.134;8.378;2022-09-01T09:47:44;20.50;66.80
49236;DHT22;35067;48.134;8.378;2022-09-01T09:49:45;20.70;65.20
49236;DHT22;35067;48.134;8.378;2022-09-01T09:51:55;20.50;65.80
49236;DHT22;35067;48.134;8.378;2022-09-01T09:56:23;20.80;63.00
49236;DHT22;35067;48.134;8.378;2022-09-01T09:58:35;21.20;62.30
49236;DHT22;35067;48.134;8.378;2022-09-01T10:00:37;21.10;61.80
49236;DHT22;35067;48.134;8.378;2022-09-01T10:02:42;21.40;60.80
49236;DHT22;35067;48.134;8.378;2022-09-01T10:04:44;21.70;59.10
49236;DHT22;35067;48.134;8.378;2022-09-01T10:06:44;22.10;57.10
49236;DHT22;35067;48.134;8.378;2022-09-01T10:08:45;22.40;57.50
49236;DHT22;35067;48.134;8.378;2022-09-01T10:10:49;21.80;56.50
49236;DHT22;35067;48.134;8.378;2022-09-01T10:12:52;22.20;57.20
49236;DHT22;35067;48.134;8.378;2022-09-01T10:14:58;22.50;54.90
49236;DHT22;35067;48.134;8.378;2022-09-01T10:17:15;23.10;54.40
49236;DHT22;35067;48.134;8.378;2022-09-01T10:19:17;23.00;53.50
49236;DHT22;35067;48.134;8.378;2022-09-01T10:21:48;22.90;51.70
49236;DHT22;35067;48.134;8.378;2022-09-01T10:23:49;21.60;57.60
49236;DHT22;35067;48.134;8.378;2022-09-01T10:25:51;21.80;56.50
49236;DHT22;35067;48.134;8.378;2022-09-01T10:27:59;22.50;55.80
49236;DHT22;35067;48.134;8.378;2022-09-01T10:30:12;23.40;52.90
49236;DHT22;35067;48.134;8.378;2022-09-01T10:32:23;22.50;55.90
49236;DHT22;35067;48.134;8.378;2022-09-01T10:34:29;22.60;54.20
49236;DHT22;35067;48.134;8.378;2022-09-01T10:36:34;22.00;58.00
49236;DHT22;35067;48.134;8.378;2022-09-01T10:38:36;21.80;57.40
49236;DHT22;35067;48.134;8.378;2022-09-01T10:40:39;22.50;58.10
49236;DHT22;35067;48.134;8.378;2022-09-01T10:42:47;23.20;53.90
49236;DHT22;35067;48.134;8.378;2022-09-01T10:44:58;23.80;52.20
49236;DHT22;35067;48.134;8.378;2022-09-01T10:53:38;23.60;50.50
49236;DHT22;35067;48.134;8.378;2022-09-01T10:55:46;23.40;50.10
49236;DHT22;35067;48.134;8.378;2022-09-01T11:02:34;24.50;49.30
49236;DHT22;35067;48.134;8.378;2022-09-01T11:09:03;26.20;43.50
49236;DHT22;35067;48.134;8.378;2022-09-01T11:13:43;24.30;48.70
49236;DHT22;35067;48.134;8.378;2022-09-01T11:15:46;24.90;46.70
49236;DHT22;35067;48.134;8.378;2022-09-01T11:22:39;27.00;40.40
49236;DHT22;35067;48.134;8.378;2022-09-01T11:24:47;27.20;40.10
49236;DHT22;35067;48.134;8.378;2022-09-01T11:26:51;26.80;40.00
49236;DHT22;35067;48.134;8.378;2022-09-01T11:28:52;26.40;45.50
49236;DHT22;35067;48.134;8.378;2022-09-01T11:35:19;26.90;39.30
49236;DHT22;35067;48.134;8.378;2022-09-01T11:37:24;26.00;42.40
49236;DHT22;35067;48.134;8.378;2022-09-01T11:39:32;27.00;40.30
49236;DHT22;35067;48.134;8.378;2022-09-01T11:43:41;25.70;41.80
49236;DHT22;35067;48.134;8.378;2022-09-01T11:46:10;24.90;43.20
49236;DHT22;35067;48.134;8.378;2022-09-01T11:48:16;24.20;46.10
49236;DHT22;35067;48.134;8.378;2022-09-01T11:50:29;24.10;47.60
49236;DHT22;35067;48.134;8.378;2022-09-01T11:52:35;24.30;48.70
49236;DHT22;35067;48.134;8.378;2022-09-01T11:54:39;23.70;47.50
49236;DHT22;35067;48.134;8.378;2022-09-01T11:56:41;24.40;49.80
49236;DHT22;35067;48.134;8.378;2022-09-01T11:58:42;26.20;44.00
49236;DHT22;35067;48.134;8.378;2022-09-01T12:00:43;27.90;40.20
49236;DHT22;35067;48.134;8.378;2022-09-01T12:02:48;27.90;40.10
49236;DHT22;35067;48.134;8.378;2022-09-01T12:04:51;28.80;36.60
49236;DHT22;35067;48.134;8.378;2022-09-01T12:06:58;28.00;38.40
49236;DHT22;35067;48.134;8.378;2022-09-01T12:09:06;28.00;39.70
49236;DHT22;35067;48.134;8.378;2022-09-01T12:11:10;29.00;36.60
49236;DHT22;35067;48.134;8.378;2022-09-01T12:13:21;29.40;34.90
49236;DHT22;35067;48.134;8.378;2022-09-01T12:15:25;29.10;34.10
49236;DHT22;35067;48.134;8.378;2022-09-01T12:17:26;29.90;33.20
49236;DHT22;35067;48.134;8.378;2022-09-01T12:19:30;29.60;34.00
49236;DHT22;35067;48.134;8.378;2022-09-01T12:21:36;28.00;36.40
49236;DHT22;35067;48.134;8.378;2022-09-01T12:23:41;29.40;35.00
49236;DHT22;35067;48.134;8.378;2022-09-01T12:25:43;29.70;33.40
49236;DHT22;35067;48.134;8.378;2022-09-01T12:27:45;27.00;36.70
49236;DHT22;35067;48.134;8.378;2022-09-01T12:29:46;26.10;38.20
49236;DHT22;35067;48.134;8.378;2022-09-01T12:31:48;27.00;38.60
49236;DHT22;35067;48.134;8.378;2022-09-01T12:33:51;27.20;38.50
49236;DHT22;35067;48.134;8.378;2022-09-01T12:36:33;28.30;35.00
49236;DHT22;35067;48.134;8.378;2022-09-01T12:38:34;30.80;30.40
49236;DHT22;35067;48.134;8.378;2022-09-01T12:40:35;29.50;32.60
49236;DHT22;35067;48.134;8.378;2022-09-01T12:42:36;29.80;30.60
49236;DHT22;35067;48.134;8.378;2022-09-01T12:46:44;28.60;34.40
49236;DHT22;35067;48.134;8.378;2022-09-01T12:48:45;29.10;32.40
49236;DHT22;35067;48.134;8.378;2022-09-01T12:50:46;28.10;34.40
49236;DHT22;35067;48.134;8.378;2022-09-01T12:52:51;28.50;34.20
49236;DHT22;35067;48.134;8.378;2022-09-01T12:56:57;27.00;34.40
49236;DHT22;35067;48.134;8.378;2022-09-01T12:59:09;27.70;37.90
49236;DHT22;35067;48.134;8.378;2022-09-01T13:01:27;28.10;33.90
49236;DHT22;35067;48.134;8.378;2022-09-01T13:03:32;28.30;34.10
49236;DHT22;35067;48.134;8.378;2022-09-01T13:05:36;29.60;33.50
49236;DHT22;35067;48.134;8.378;2022-09-01T13:07:40;31.00;29.90
49236;DHT22;35067;48.134;8.378;2022-09-01T13:09:40;31.00;30.00
49236;DHT22;35067;48.134;8.378;2022-09-01T13:11:41;30.40;29.40
49236;DHT22;35067;48.134;8.378;2022-09-01T13:13:42;29.90;30.00
49236;DHT22;35067;48.134;8.378;2022-09-01T13:15:46;28.70;31.60
49236;DHT22;35067;48.134;8.378;2022-09-01T13:17:49;27.90;33.00
49236;DHT22;35067;48.134;8.378;2022-09-01T13:19:50;27.70;35.60
49236;DHT22;35067;48.134;8.378;2022-09-01T13:21:50;27.90;33.10
49236;DHT22;35067;48.134;8.378;2022-09-01T13:23:51;27.30;34.50
49236;DHT22;35067;48.134;8.378;2022-09-01T13:25:52;26.00;37.40
49236;DHT22;35067;48.134;8.378;2022-09-01T13:27:54;26.70;36.90
49236;DHT22;35067;48.134;8.378;2022-09-01T13:29:55;29.30;32.90
49236;DHT22;35067;48.134;8.378;2022-09-01T13:31:56;30.00;31.30
49236;DHT22;35067;48.134;8.378;2022-09-01T13:33:58;29.00;32.00
49236;DHT22;35067;48.134;8.378;2022-09-01T13:35:59;27.40;33.60
49236;DHT22;35067;48.134;8.378;2022-09-01T13:38:00;26.40;36.50
49236;DHT22;35067;48.134;8.378;2022-09-01T13:40:02;27.90;35.90
49236;DHT22;35067;48.134;8.378;2022-09-01T13:42:05;30.50;32.40
49236;DHT22;35067;48.134;8.378;2022-09-01T13:44:06;32.40;29.80
49236;DHT22;35067;48.134;8.378;2022-09-01T13:46:10;32.60;27.80
49236;DHT22;35067;48.134;8.378;2022-09-01T13:48:12;33.00;26.40
49236;DHT22;35067;48.134;8.378;2022-09-01T13:50:16;34.00;25.60
49236;DHT22;35067;48.134;8.378;2022-09-01T13:52:18;31.70;28.00
49236;DHT22;35067;48.134;8.378;2022-09-01T13:54:19;30.70;29.60
49236;DHT22;35067;48.134;8.378;2022-09-01T13:56:20;32.10;27.30
49236;DHT22;35067;48.134;8.378;2022-09-01T13:58:21;33.40;27.00
49236;DHT22;35067;48.134;8.378;2022-09-01T14:00:25;32.40;28.40